Time;durP1;ratioP1;P1;durP2;ratioP2;P2;SDS_P1;SDS_P2;PMS_P1;PMS_P2;Temp;Humidity;BMP_temperature;BMP_pressure;BME280_temperature;BME280_humidity;BME280_pressure;Samples;Min_cycle;Max_cycle;Signal;HPM_P1;HPM_P2
2022/02/04 00:24:05;;;;;;;27.10;22.20;;;;;;;6.45;100.00;101228.47;5051160;28;20033;-36
2022/02/04 00:26:35;;;;;;;26.20;21.30;;;;;;;6.47;100.00;101236.34;5050540;28;20112;-35
2022/02/04 00:31:43;;;;;;;23.50;20.00;;;;;;;6.40;100.00;101223.69;5050750;28;20044;-35
2022/02/04 00:34:14;;;;;;;27.67;20.17;;;;;;;6.41;100.00;101225.34;5050678;28;20033;-36
2022/02/04 00:39:16;;;;;;;24.88;19.55;;;;;;;6.48;100.00;101230.75;5053092;28;20060;-35
2022/02/04 00:41:43;;;;;;;23.75;17.58;;;;;;;6.49;100.00;101234.28;5053029;28;20032;-35
2022/02/04 00:44:17;;;;;;;22.45;18.27;;;;;;;6.49;100.00;101236.97;5053073;28;20136;-35
2022/02/04 00:46:57;;;;;;;22.95;18.30;;;;;;;6.49;100.00;101232.44;5053010;28;20393;-35
2022/02/04 01:13:32;;;;;;;19.45;14.40;;;;;;;6.45;100.00;101194.38;5056928;28;20393;-35
2022/02/04 01:25:56;;;;;;;18.55;14.02;;;;;;;6.52;100.00;101194.41;5056723;28;20137;-35
2022/02/04 01:26:56;;;;;;;17.55;14.32;;;;;;;6.52;100.00;101205.16;5056552;28;20055;-36
2022/02/04 01:29:23;;;;;;;17.27;13.85;;;;;;;6.44;100.00;101189.19;5055627;28;20025;-36
2022/02/04 01:31:48;;;;;;;16.27;13.63;;;;;;;6.51;100.00;101194.63;5057021;28;20111;-36
2022/02/04 01:34:14;;;;;;;17.57;13.57;;;;;;;6.51;100.00;101205.38;5056482;28;20510;-35
2022/02/04 01:36:40;;;;;;;15.15;13.10;;;;;;;6.49;100.00;101200.22;5056057;28;20029;-36
2022/02/04 01:39:05;;;;;;;18.75;14.57;;;;;;;6.50;100.00;101201.03;5056129;28;20051;-36
2022/02/04 01:41:31;;;;;;;16.23;12.90;;;;;;;6.50;100.00;101201.03;5055785;28;20492;-36
2022/02/04 01:43:56;;;;;;;15.40;12.67;;;;;;;6.51;100.00;101200.00;5056320;28;20040;-35
2022/02/04 01:46:21;;;;;;;20.13;13.13;;;;;;;6.51;100.00;101202.69;5055521;28;20024;-35
2022/02/04 01:48:47;;;;;;;15.57;12.37;;;;;;;6.49;100.00;101200.22;5055623;28;20106;-35
2022/02/04 01:51:14;;;;;;;15.93;12.87;;;;;;;6.49;100.00;101202.03;5055664;28;20028;-35
2022/02/04 01:53:40;;;;;;;17.17;12.70;;;;;;;6.48;100.00;101195.00;5055753;28;20029;-36
2022/02/04 01:56:08;;;;;;;19.35;14.07;;;;;;;6.40;100.00;101190.63;5055776;28;20056;-36
2022/02/04 01:58:35;;;;;;;14.27;12.70;;;;;;;6.50;100.00;101201.03;5056121;28;20029;-35
2022/02/04 02:01:00;;;;;;;19.08;13.18;;;;;;;6.50;100.00;101201.03;5055075;28;20393;-35
2022/02/04 02:03:26;;;;;;;16.00;12.85;;;;;;;6.50;100.00;101201.03;5055364;28;20033;-35
2022/02/04 02:05:55;;;;;;;18.75;12.77;;;;;;;6.50;100.00;101209.09;5055681;28;20036;-35
2022/02/04 02:08:21;;;;;;;15.90;12.57;;;;;;;6.49;100.00;101199.34;5055270;28;20511;-35
2022/02/04 02:10:48;;;;;;;16.48;12.35;;;;;;;6.50;100.00;101206.41;5055137;28;20067;-35
2022/02/04 02:16:08;;;;;;;16.15;12.30;;;;;;;6.50;100.00;101190.28;5055417;28;20392;-35
2022/02/04 02:56:20;;;;;;;14.15;11.07;;;;;;;6.47;100.00;101147.69;5052048;28;20040;-35
2022/02/04 02:58:45;;;;;;;15.10;11.30;;;;;;;6.49;100.00;101157.22;5051800;28;20099;-35
2022/02/04 03:01:11;;;;;;;13.70;10.68;;;;;;;6.40;100.00;101135.03;5052664;28;20033;-35
2022/02/04 03:03:36;;;;;;;17.17;11.80;;;;;;;6.46;100.00;101146.84;5052011;28;20142;-35
2022/02/04 03:06:02;;;;;;;14.27;10.87;;;;;;;6.34;100.00;101117.00;5051855;28;20036;-35
2022/02/04 03:08:28;;;;;;;14.52;10.68;;;;;;;6.41;100.00;101128.63;5052409;28;20474;-35
2022/02/04 03:10:57;;;;;;;15.27;10.73;;;;;;;6.42;100.00;101132.97;5053133;28;20033;-35
2022/02/04 03:13:25;;;;;;;13.93;10.88;;;;;;;6.49;100.00;101137.56;5053717;28;20037;-35
2022/02/04 03:15:58;;;;;;;14.35;10.88;;;;;;;6.46;100.00;101128.06;5054205;28;20025;-35
2022/02/04 03:18:25;;;;;;;13.30;10.35;;;;;;;6.47;100.00;101131.56;5053913;28;20051;-35
2022/02/04 03:20:54;;;;;;;12.27;9.55;;;;;;;6.41;100.00;101123.25;5053925;28;20017;-35
2022/02/04 03:23:21;;;;;;;14.02;9.80;;;;;;;6.45;100.00;101129.09;5052600;28;20434;-35
2022/02/04 03:25:52;;;;;;;13.30;9.57;;;;;;;6.45;100.00;101124.53;5054217;28;20057;-35
2022/02/04 03:28:24;;;;;;;16.45;11.15;;;;;;;6.43;100.00;101129.25;5054038;28;20388;-35
2022/02/04 03:30:51;;;;;;;12.10;9.25;;;;;;;6.36;100.00;101109.59;5053338;28;20032;-35
2022/02/04 03:33:20;;;;;;;15.25;9.82;;;;;;;6.42;100.00;101114.19;5053542;28;20469;-35
2022/02/04 03:35:45;;;;;;;16.27;10.30;;;;;;;6.45;100.00;101121.84;5054048;28;20025;-35
2022/02/04 03:38:10;;;;;;;11.07;9.77;;;;;;;6.46;100.00;101122.69;5053613;28;20457;-35
2022/02/04 03:40:36;;;;;;;14.83;11.00;;;;;;;6.37;100.00;101105.06;5053347;28;20461;-35
2022/02/04 03:43:01;;;;;;;11.87;8.90;;;;;;;6.44;100.00;101111.28;5053194;28;20048;-35
2022/02/04 03:45:26;;;;;;;12.47;9.20;;;;;;;6.43;100.00;101109.63;5053540;28;20040;-35
2022/02/04 03:47:52;;;;;;;11.50;9.10;;;;;;;6.44;100.00;101101.38;5053097;28;20033;-35
2022/02/04 03:50:17;;;;;;;12.83;9.00;;;;;;;6.42;100.00;101098.06;5053072;28;20029;-35
2022/02/04 03:52:43;;;;;;;13.23;9.18;;;;;;;6.47;100.00;101100.16;5053930;28;20039;-35
2022/02/04 03:55:10;;;;;;;13.60;8.87;;;;;;;6.49;100.00;101108.00;5052954;28;20025;-35
2022/02/04 03:57:36;;;;;;;11.48;8.63;;;;;;;6.48;100.00;101101.81;5053170;28;20271;-35
2022/02/04 04:00:05;;;;;;;11.70;7.63;;;;;;;6.52;100.00;101102.25;5053225;28;20025;-35
2022/02/04 04:02:30;;;;;;;12.68;8.43;;;;;;;6.51;100.00;101101.41;5053799;28;20385;-35
2022/02/04 04:04:55;;;;;;;10.30;7.87;;;;;;;6.54;100.00;101105.56;5053114;28;20037;-35
2022/02/04 04:07:21;;;;;;;11.90;8.40;;;;;;;6.50;100.00;101099.75;5053109;28;20116;-35
2022/02/04 04:09:52;;;;;;;10.23;8.13;;;;;;;6.53;100.00;101095.84;5053324;28;20017;-35
2022/02/04 04:12:19;;;;;;;8.90;6.70;;;;;;;6.52;100.00;101100.38;5053032;28;20033;-35
2022/02/04 04:14:46;;;;;;;10.30;7.43;;;;;;;6.45;100.00;101080.72;5052876;28;20036;-35
2022/02/04 04:17:12;;;;;;;10.02;7.13;;;;;;;6.53;100.00;101087.78;5053177;28;20028;-36
2022/02/04 04:19:37;;;;;;;10.10;7.47;;;;;;;6.53;99.63;101091.28;5053549;28;20472;-35
2022/02/04 04:22:02;;;;;;;11.10;7.43;;;;;;;6.51;100.00;101081.78;5053117;28;20025;-35
2022/02/04 04:24:28;;;;;;;9.73;6.82;;;;;;;6.54;100.00;101092.97;5053024;28;20517;-36
2022/02/04 04:26:53;;;;;;;7.57;5.97;;;;;;;6.55;99.73;101099.19;5053137;28;20033;-35
2022/02/04 04:29:18;;;;;;;8.73;6.43;;;;;;;6.56;99.96;101095.44;5053669;28;20033;-35
2022/02/04 04:31:44;;;;;;;9.73;6.37;;;;;;;6.50;99.99;101082.81;5053354;28;20115;-36
2022/02/04 04:34:09;;;;;;;8.53;6.93;;;;;;;6.39;99.71;101060.00;5053092;28;20032;-36
2022/02/04 04:36:35;;;;;;;8.73;6.37;;;;;;;6.50;99.38;101082.81;5052703;28;20492;-36
2022/02/04 05:30:45;;;;;;;6.43;4.32;;;;;;;6.64;98.62;101049.63;4990782;28;20162;-35
2022/02/04 05:33:11;;;;;;;4.90;3.40;;;;;;;6.66;98.74;101055.59;4990827;28;20479;-35
2022/02/04 05:35:36;;;;;;;5.38;4.25;;;;;;;6.59;98.79;101039.47;4992189;28;20121;-35
2022/02/04 05:38:03;;;;;;;5.75;4.15;;;;;;;6.65;98.37;101043.22;4994138;28;20118;-35
2022/02/04 05:40:31;;;;;;;5.68;4.00;;;;;;;6.64;98.07;101044.25;4994381;28;20521;-35
2022/02/04 05:43:02;;;;;;;5.68;3.92;;;;;;;6.66;98.30;101048.38;4994027;28;20054;-35
2022/02/04 05:45:31;;;;;;;5.68;4.22;;;;;;;6.63;98.35;101045.25;5011785;28;20092;-35
2022/02/04 05:48:02;;;;;;;7.13;3.90;;;;;;;6.68;97.87;101053.53;5034052;28;20054;-35
2022/02/04 05:55:38;;;;;;;4.30;3.50;;;;;;;6.70;98.05;101046.94;5033307;28;20037;-35
2022/02/04 05:58:34;;;;;;;5.88;3.58;;;;;;;6.65;98.11;101033.28;5033760;28;20030;-35
2022/02/04 06:00:59;;;;;;;5.82;3.50;;;;;;;6.71;97.96;101031.66;5038249;28;20037;-35
2022/02/04 06:03:35;;;;;;;7.47;3.78;;;;;;;6.74;97.95;101035.81;5055361;28;20036;-35
2022/02/04 06:24:32;;;;;;;4.18;3.00;;;;;;;6.71;99.25;101018.22;5055478;28;20489;-36
2022/02/04 06:26:57;;;;;;;4.20;2.60;;;;;;;6.77;99.52;101036.22;5055708;28;20062;-35
2022/02/04 06:29:23;;;;;;;3.00;2.43;;;;;;;6.76;99.60;101033.72;5055176;28;20025;-36
2022/02/04 06:31:48;;;;;;;;;;;;;;;6.79;99.07;101036.03;5055631;28;20072;-36
2022/02/04 06:34:14;;;;;;;5.03;2.80;;;;;;;6.76;100.00;101039.94;5054845;28;19955;-35
2022/02/04 06:36:40;;;;;;;5.20;2.70;;;;;;;6.77;99.83;101040.75;5054745;28;20279;-36
2022/02/04 06:39:05;;;;;;;3.73;2.77;;;;;;;6.76;99.84;101033.72;5055131;28;20025;-35
2022/02/04 06:41:31;;;;;;;4.78;3.22;;;;;;;6.74;100.00;101041.19;5054815;28;20035;-36
2022/02/04 06:43:56;;;;;;;3.70;2.57;;;;;;;6.73;100.00;101040.31;5054711;28;20489;-36
2022/02/04 06:46:21;;;;;;;4.67;3.50;;;;;;;6.68;100.00;101032.03;5055093;28;20268;-36
2022/02/04 06:48:50;;;;;;;4.30;3.30;;;;;;;6.67;100.00;101031.22;5054781;28;20033;-36
2022/02/04 06:51:15;;;;;;;4.00;3.28;;;;;;;6.57;100.00;101022.69;5054229;28;20029;-36
2022/02/04 06:53:41;;;;;;;5.40;3.30;;;;;;;6.55;100.00;101016.72;5054710;28;20518;-35
2022/02/04 06:56:06;;;;;;;4.40;3.03;;;;;;;6.61;100.00;101031.19;5054620;28;20033;-36
2022/02/04 06:58:32;;;;;;;3.97;3.30;;;;;;;6.47;100.00;100999.94;5054355;28;20036;-35
2022/02/04 07:00:57;;;;;;;6.27;3.80;;;;;;;6.60;100.00;101026.84;5054906;28;20063;-35
2022/02/04 07:03:22;;;;;;;5.00;3.73;;;;;;;6.56;100.00;101020.22;5054276;28;20385;-35
2022/02/04 07:05:58;;;;;;;6.27;4.20;;;;;;;6.27;100.00;100981.84;5054300;28;20025;-35
2022/02/04 07:08:30;;;;;;;6.40;4.43;;;;;;;6.44;100.00;101015.44;5054260;28;20522;-35
2022/02/04 07:21:31;;;;;;;6.85;5.30;;;;;;;6.30;100.00;101013.69;5053895;28;20044;-35
2022/02/04 07:23:56;;;;;;;7.27;5.67;;;;;;;6.35;100.00;101018.47;5053908;28;20111;-35
2022/02/04 07:26:22;;;;;;;8.67;5.97;;;;;;;6.35;100.00;101022.00;5053811;28;20065;-35
2022/02/04 07:28:47;;;;;;;16.75;5.65;;;;;;;6.35;100.00;101015.78;5054253;28;20033;-34
2022/02/04 07:31:15;;;;;;;7.27;5.73;;;;;;;6.36;100.00;101022.81;5052443;28;20068;-35
2022/02/04 07:33:47;;;;;;;7.28;6.10;;;;;;;6.34;100.00;101012.25;5054078;28;20107;-35
2022/02/04 07:41:40;;;;;;;8.50;6.65;;;;;;;6.38;100.00;101001.94;5053677;28;20461;-35
2022/02/04 07:44:06;;;;;;;8.37;6.33;;;;;;;6.33;100.00;100975.69;5053900;28;20126;-35
2022/02/04 07:46:31;;;;;;;8.27;6.53;;;;;;;6.38;100.00;100978.59;5053614;28;20732;-35
2022/02/04 07:48:57;;;;;;;8.57;6.68;;;;;;;6.33;100.00;100978.38;5053617;28;20079;-35
2022/02/04 07:51:22;;;;;;;7.40;6.15;;;;;;;6.43;100.00;100986.06;5054181;28;20079;-35
2022/02/04 07:53:48;;;;;;;6.97;6.17;;;;;;;6.38;100.00;100970.53;5053432;28;20114;-35
2022/02/04 07:56:19;;;;;;;7.77;6.33;;;;;;;6.41;100.00;100972.00;5053902;28;20456;-35
2022/02/04 07:58:54;;;;;;;12.50;6.57;;;;;;;6.31;100.00;100950.91;5053184;28;20485;-34
2022/02/04 08:01:24;;;;;;;9.30;6.50;;;;;;;6.40;100.00;100965.81;5053692;28;20032;-35
2022/02/04 08:03:56;;;;;;;8.93;6.03;;;;;;;6.39;100.00;100969.53;5053622;28;20021;-35
2022/02/04 08:06:23;;;;;;;8.77;6.95;;;;;;;6.49;100.00;100973.69;5053561;28;20111;-35
2022/02/04 08:08:57;;;;;;;8.93;6.15;;;;;;;6.43;100.00;100959.19;5052945;28;20033;-35
2022/02/04 08:14:14;;;;;;;10.13;7.78;;;;;;;6.54;100.00;100974.75;5053222;28;20079;-35
2022/02/04 08:24:54;;;;;;;8.80;7.47;;;;;;;6.62;100.00;100981.78;5031338;28;20037;-35
2022/02/04 08:48:57;;;;;;;8.45;7.38;;;;;;;6.69;100.00;100950.41;4953256;29;20050;-35
2022/02/04 08:54:28;;;;;;;10.55;7.82;;;;;;;6.68;100.00;100951.41;4952682;29;20046;-35
2022/02/04 09:02:09;;;;;;;10.07;7.82;;;;;;;6.67;100.00;100945.22;4972036;28;20039;-36
2022/02/04 09:04:45;;;;;;;8.95;7.90;;;;;;;6.66;100.00;100943.56;4971868;28;20035;-36
2022/02/04 09:07:12;;;;;;;9.70;8.40;;;;;;;6.64;100.00;100944.81;4972482;28;20027;-36
2022/02/04 09:16:49;;;;;;;9.50;8.30;;;;;;;6.65;100.00;100933.03;4976008;28;20050;-36
2022/02/04 09:22:52;;;;;;;8.55;7.35;;;;;;;6.81;100.00;100929.13;4975298;28;20488;-36
2022/02/04 09:25:18;;;;;;;7.27;6.57;;;;;;;6.84;100.00;100912.59;4975371;28;20125;-36
2022/02/04 09:27:44;;;;;;;7.60;6.80;;;;;;;6.89;100.00;100918.19;4975105;28;20129;-36
2022/02/04 09:30:11;;;;;;;;;;;;;;;6.94;100.00;100918.41;5024750;28;20113;-37
2022/02/04 09:32:38;;;;;;;6.50;5.78;;;;;;;6.99;100.00;100913.25;5056209;28;19909;-36
2022/02/04 09:35:06;;;;;;;6.68;5.50;;;;;;;6.93;100.00;100895.25;5056346;28;20031;-36
2022/02/04 09:37:31;;;;;;;8.00;6.32;;;;;;;7.01;100.00;100896.88;5055839;28;20033;-36
2022/02/04 09:39:58;;;;;;;6.70;5.63;;;;;;;6.99;100.00;100901.66;5056385;28;20029;-36
2022/02/04 09:42:24;;;;;;;6.97;5.22;;;;;;;7.00;100.00;100904.13;5056007;28;20103;-36
2022/02/04 09:44:49;;;;;;;8.65;5.53;;;;;;;7.02;100.00;100898.53;5056359;28;20499;-36
2022/02/04 09:47:19;;;;;;;5.87;5.27;;;;;;;6.99;100.00;100882.84;5056456;28;20045;-34
2022/02/04 09:49:49;;;;;;;6.50;5.90;;;;;;;6.96;100.00;100890.28;5056308;28;20122;-35
2022/02/04 10:06:58;;;;;;;9.80;7.30;;;;;;;6.83;100.00;100865.22;5056006;28;20036;-35
2022/02/04 10:12:13;;;;;;;8.05;7.25;;;;;;;6.88;100.00;100882.41;5056044;28;20036;-35
2022/02/04 10:14:56;;;;;;;8.52;6.93;;;;;;;6.88;100.00;100877.03;5055355;28;20036;-35
2022/02/04 10:17:28;;;;;;;7.30;6.60;;;;;;;6.87;100.00;100869.16;5055321;28;20470;-35
2022/02/04 10:19:58;;;;;;;7.97;6.55;;;;;;;6.87;100.00;100869.16;5054997;28;20036;-35
2022/02/04 10:22:29;;;;;;;7.78;6.22;;;;;;;6.86;100.00;100867.53;5055646;28;20033;-35
2022/02/04 10:24:54;;;;;;;6.25;5.57;;;;;;;6.87;100.00;100858.41;5055490;28;20116;-35
2022/02/04 10:27:22;;;;;;;7.87;5.63;;;;;;;6.88;100.00;100860.06;5055186;28;20108;-35
2022/02/04 10:29:53;;;;;;;6.32;5.30;;;;;;;6.92;100.00;100842.50;5055901;28;20422;-35
2022/02/04 10:32:25;;;;;;;6.60;5.85;;;;;;;6.97;100.00;100824.69;5055142;28;20078;-35
2022/02/04 10:35:32;;;;;;;7.95;5.40;;;;;;;7.03;100.00;100819.53;5055585;28;20029;-35
2022/02/04 10:38:10;;;;;;;6.40;5.57;;;;;;;7.13;100.00;100830.72;5013092;28;20045;-35
2022/02/04 10:46:40;;;;;;;;;;;;;;;7.32;100.00;100810.19;4993659;28;20050;-35
2022/02/04 10:49:32;;;;;;;4.70;4.20;;;;;;;7.29;100.00;100818.69;4993305;28;19913;-35
2022/02/04 10:52:29;;;;;;;4.80;4.15;;;;;;;7.34;100.00;100803.56;4993014;28;20030;-35
2022/02/04 10:57:53;;;;;;;4.70;4.20;;;;;;;7.32;100.00;100794.88;4993258;28;20046;-35
2022/02/04 11:00:26;;;;;;;5.00;4.50;;;;;;;7.41;100.00;100790.91;4992888;28;20034;-35
2022/02/04 11:02:56;;;;;;;5.38;4.28;;;;;;;7.41;100.00;100784.69;4992900;28;20042;-36
2022/02/04 11:05:31;;;;;;;4.07;3.60;;;;;;;7.47;100.00;100773.94;4992910;28;20037;-35
2022/02/04 11:11:14;;;;;;;4.45;3.25;;;;;;;7.61;100.00;100769.34;4993069;28;20114;-35
2022/02/04 11:36:06;;;;;;;4.00;2.85;;;;;;;7.90;95.71;100700.63;5031943;28;20037;-36
2022/02/04 11:51:15;;;;;;;4.90;3.00;;;;;;;7.92;96.58;100660.88;5011980;28;20037;-36
2022/02/04 11:53:54;;;;;;;4.18;3.17;;;;;;;7.91;97.27;100659.22;5001224;28;20038;-36
2022/02/04 11:56:20;;;;;;;5.25;4.40;;;;;;;7.86;97.83;100650.97;5011987;28;20034;-36
2022/02/04 11:59:03;;;;;;;4.43;4.03;;;;;;;7.90;97.79;100644.09;5012077;28;20471;-36
2022/02/04 12:01:44;;;;;;;5.47;3.97;;;;;;;7.87;96.83;100636.47;5012006;28;20041;-36
2022/02/04 12:04:20;;;;;;;6.03;3.65;;;;;;;7.95;97.42;100633.50;5011794;28;20133;-36
2022/02/04 12:06:46;;;;;;;4.10;3.58;;;;;;;7.97;96.34;100630.59;4995758;28;20044;-36
2022/02/04 12:09:46;;;;;;;3.25;2.95;;;;;;;7.97;96.03;100623.34;5011447;28;20076;-36
2022/02/04 12:12:14;;;;;;;4.97;3.22;;;;;;;7.96;95.59;100616.31;5041697;28;20048;-36
2022/02/04 12:14:39;;;;;;;4.75;3.20;;;;;;;7.96;95.40;100610.09;5051225;28;20390;-36
2022/02/04 12:17:12;;;;;;;4.93;3.70;;;;;;;7.94;94.33;100615.69;5050777;28;20076;-36
2022/02/04 12:19:43;;;;;;;4.90;2.90;;;;;;;7.97;93.38;100601.78;5050992;28;20394;-36
2022/02/04 12:22:10;;;;;;;3.85;2.92;;;;;;;7.91;92.82;100583.00;5051158;28;20036;-36
2022/02/04 12:24:40;;;;;;;2.70;2.10;;;;;;;8.00;90.61;100593.28;5052931;28;20405;-36
2022/02/04 12:27:37;;;;;;;2.88;2.20;;;;;;;8.04;89.83;100582.06;5053386;28;20028;-36
2022/02/04 12:30:35;;;;;;;3.78;2.38;;;;;;;8.05;90.54;100572.94;5052210;28;20041;-36
2022/02/04 12:33:03;;;;;;;3.55;2.22;;;;;;;8.06;88.81;100574.59;5053617;28;20462;-36
2022/02/04 12:35:29;;;;;;;6.18;2.35;;;;;;;8.02;88.51;100571.50;5054018;28;20032;-36
2022/02/04 12:37:55;;;;;;;2.72;2.25;;;;;;;7.99;88.99;100566.56;5053044;28;20100;-36
2022/02/04 12:40:23;;;;;;;4.20;2.30;;;;;;;8.01;89.46;100577.94;5053347;28;20428;-36
2022/02/04 12:42:49;;;;;;;3.38;2.20;;;;;;;8.02;89.97;100571.50;5052696;28;20032;-36
2022/02/04 12:45:15;;;;;;;6.30;3.73;;;;;;;7.99;89.84;100551.22;5056661;28;20052;-34
2022/02/04 12:47:43;;;;;;;2.63;2.30;;;;;;;7.92;89.78;100539.69;5056795;28;20041;-35
2022/02/04 12:50:09;;;;;;;3.47;2.40;;;;;;;8.02;90.15;100546.47;5057216;28;20104;-35
2022/02/04 12:52:46;;;;;;;3.92;3.22;;;;;;;8.03;89.88;100558.88;5056918;28;20039;-35
2022/02/04 12:55:26;;;;;;;4.05;2.83;;;;;;;8.02;90.13;100549.16;5055546;28;20037;-36
2022/02/04 13:03:12;;;;;;;4.25;3.25;;;;;;;8.13;89.38;100526.88;5054436;28;20040;-36
2022/02/04 13:09:32;;;;;;;5.00;3.25;;;;;;;8.19;88.78;100501.72;5054940;28;20040;-36
2022/02/04 13:11:31;;;;;;;4.78;3.70;;;;;;;8.22;89.00;100501.28;5053733;28;20033;-36
2022/02/04 13:13:59;;;;;;;3.80;3.40;;;;;;;8.21;89.13;100488.88;5054401;28;20037;-36
2022/02/04 13:16:30;;;;;;;4.38;3.75;;;;;;;8.16;88.01;100478.78;5053969;28;20548;-36
2022/02/04 13:19:01;;;;;;;4.70;3.60;;;;;;;8.16;89.40;100481.47;5054160;28;20440;-35
2022/02/04 13:21:28;;;;;;;4.78;3.58;;;;;;;8.17;88.23;100487.69;5054367;28;20460;-35
2022/02/04 13:23:54;;;;;;;4.22;3.40;;;;;;;8.16;88.95;100480.66;5053878;28;20068;-35
2022/02/04 13:26:24;;;;;;;4.63;3.92;;;;;;;8.16;88.22;100477.97;5054405;28;20061;-35
2022/02/04 13:28:55;;;;;;;5.63;3.42;;;;;;;8.19;87.70;100480.19;5053818;28;20021;-35
2022/02/04 13:31:22;;;;;;;4.88;3.67;;;;;;;8.12;88.61;100469.50;5053871;28;20037;-35
2022/02/04 13:33:50;;;;;;;4.88;3.83;;;;;;;8.06;88.53;100474.97;5053881;28;20094;-35
2022/02/04 13:36:35;;;;;;;6.93;3.90;;;;;;;8.06;89.21;100472.25;5053649;28;20029;-35
2022/02/04 13:46:53;;;;;;;5.70;4.47;;;;;;;7.67;95.10;100472.44;5056209;28;20048;-35
2022/02/04 13:52:15;;;;;;;7.00;4.65;;;;;;;7.49;96.63;100462.44;5055987;28;20472;-35
2022/02/04 14:02:53;;;;;;;7.78;5.13;;;;;;;7.21;99.71;100443.19;5056318;28;20037;-35
2022/02/04 14:05:34;;;;;;;6.82;5.18;;;;;;;7.21;99.80;100441.34;5055998;28;20033;-36
2022/02/04 14:08:08;;;;;;;6.68;4.80;;;;;;;7.20;100.00;100438.88;5055842;28;20095;-36
2022/02/04 14:10:40;;;;;;;7.15;5.95;;;;;;;7.09;100.00;100426.13;5055678;28;20020;-35
2022/02/04 14:13:11;;;;;;;6.40;4.88;;;;;;;7.12;100.00;100433.75;5055716;28;20021;-35
2022/02/04 14:15:40;;;;;;;9.18;5.43;;;;;;;7.04;100.00;100423.28;5055794;28;20037;-35
2022/02/04 14:18:09;;;;;;;25.42;6.57;;;;;;;7.06;100.00;100437.31;5055509;28;20029;-35
2022/02/04 14:20:36;;;;;;;10.07;5.53;;;;;;;7.07;100.00;100433.59;5055746;28;20365;-35
2022/02/04 14:23:06;;;;;;;7.82;5.80;;;;;;;7.06;100.00;100438.13;5055286;28;20087;-35
2022/02/04 14:25:42;;;;;;;7.57;5.80;;;;;;;7.05;100.00;100433.81;5055131;28;20040;-35
2022/02/04 14:28:10;;;;;;;9.82;5.80;;;;;;;7.05;100.00;100424.94;5054841;28;20510;-35
2022/02/04 14:30:37;;;;;;;7.72;5.20;;;;;;;7.03;100.00;100416.25;5055300;28;20068;-35
2022/02/04 14:33:11;;;;;;;7.05;5.20;;;;;;;7.02;100.00;100420.78;5055002;28;20025;-36
2022/02/04 14:35:54;;;;;;;8.27;5.72;;;;;;;7.00;100.00;100422.88;5055593;28;20021;-35
2022/02/04 14:49:33;;;;;;;8.77;5.30;;;;;;;7.02;100.00;100431.53;5055258;28;20063;-35
2022/02/04 15:02:47;;;;;;;4.32;2.15;;;;;;;6.18;100.00;100577.59;5054403;28;20044;-35
2022/02/04 15:05:17;;;;;;;2.38;0.80;;;;;;;5.92;99.85;100595.38;5055062;28;20033;-35
2022/02/04 15:07:44;;;;;;;3.03;0.60;;;;;;;5.70;99.63;100620.72;5052972;28;20112;-35
2022/02/04 15:10:15;;;;;;;3.75;0.60;;;;;;;5.32;98.56;100615.91;5054233;28;20029;-35
2022/02/04 15:12:42;;;;;;;1.10;0.50;;;;;;;5.20;98.60;100651.53;5054498;28;20029;-35
2022/02/04 15:15:08;;;;;;;1.13;0.57;;;;;;;5.02;97.34;100657.44;5054331;28;20036;-35
2022/02/04 15:17:34;;;;;;;0.77;0.50;;;;;;;4.90;98.42;100651.81;5054875;28;20107;-35
2022/02/04 15:19:59;;;;;;;0.82;0.40;;;;;;;4.86;97.97;100667.44;5054379;28;20453;-35
2022/02/04 15:22:26;;;;;;;0.83;0.50;;;;;;;4.84;98.79;100695.47;5054119;28;20155;-35
2022/02/04 15:24:53;;;;;;;2.05;0.50;;;;;;;4.79;98.99;100681.84;5054038;28;20032;-35
2022/02/04 15:27:18;;;;;;;1.00;0.40;;;;;;;4.67;98.82;100689.59;5054207;28;20025;-35
2022/02/04 15:29:47;;;;;;;0.75;0.35;;;;;;;4.70;98.07;100701.78;5054205;28;20036;-35
2022/02/04 15:32:12;;;;;;;1.00;0.40;;;;;;;4.56;98.75;100693.66;5053850;28;20032;-35
2022/02/04 15:34:37;;;;;;;0.90;0.60;;;;;;;4.69;100.00;100714.34;5053166;28;20037;-35
2022/02/04 15:37:03;;;;;;;1.50;0.50;;;;;;;4.55;99.11;100699.22;5053675;28;20040;-35
2022/02/04 15:39:34;;;;;;;4.15;1.40;;;;;;;4.62;99.77;100748.28;5053489;28;20029;-35
2022/02/04 15:42:06;;;;;;;2.03;0.95;;;;;;;4.55;98.29;100742.06;5053684;28;20595;-35
2022/02/04 15:50:00;;;;;;;1.67;1.10;;;;;;;4.43;99.20;100783.75;5053383;28;20033;-35
2022/02/04 16:05:41;;;;;;;7.72;3.38;;;;;;;4.31;100.00;100840.50;5053060;28;20385;-35
2022/02/04 16:08:08;;;;;;;7.13;2.67;;;;;;;4.22;100.00;100832.75;5053860;28;20029;-35
2022/02/04 16:10:49;;;;;;;8.95;4.00;;;;;;;4.26;100.00;100848.25;5053531;28;20366;-35
2022/02/04 16:13:29;;;;;;;15.60;5.90;;;;;;;4.19;100.00;100858.06;5053421;28;20031;-35
2022/02/04 16:16:05;;;;;;;9.48;4.38;;;;;;;4.28;100.00;100875.66;5053292;28;20396;-35
2022/02/04 16:18:37;;;;;;;8.80;3.55;;;;;;;4.28;100.00;100886.38;5053014;28;20033;-35
2022/02/04 16:21:14;;;;;;;3.03;1.52;;;;;;;4.26;100.00;100888.41;5053438;28;20036;-35
2022/02/04 16:24:02;;;;;;;4.55;2.25;;;;;;;4.20;100.00;100891.00;5053799;28;20025;-35
2022/02/04 16:29:12;;;;;;;7.05;3.30;;;;;;;4.25;100.00;100913.53;5053551;28;20040;-35
2022/02/04 16:31:38;;;;;;;8.13;2.75;;;;;;;4.27;100.00;100932.91;5053610;28;20472;-35
2022/02/04 16:34:08;;;;;;;4.20;2.43;;;;;;;4.25;100.00;100945.66;5053176;28;20041;-35
2022/02/04 16:36:39;;;;;;;7.15;3.00;;;;;;;4.21;100.00;100952.41;5053139;28;20029;-35
2022/02/04 16:39:07;;;;;;;3.03;1.30;;;;;;;4.12;100.00;100951.66;5053120;28;20029;-35
2022/02/04 16:41:47;;;;;;;5.10;2.33;;;;;;;4.19;100.00;100981.19;5053102;28;20374;-35
2022/02/04 16:44:12;;;;;;;4.70;2.00;;;;;;;4.04;100.00;100966.97;5052479;28;20037;-35
2022/02/04 16:46:38;;;;;;;2.00;1.10;;;;;;;4.09;100.00;100999.38;5053449;28;20079;-34
2022/02/04 16:49:05;;;;;;;11.63;1.40;;;;;;;3.95;99.47;100986.81;5053155;28;20091;-35
2022/02/04 16:51:30;;;;;;;3.38;2.45;;;;;;;3.99;99.76;101006.84;5052934;28;20029;-35
2022/02/04 16:53:56;;;;;;;2.92;1.45;;;;;;;3.98;100.00;101015.88;5053084;28;20033;-35
2022/02/04 16:56:21;;;;;;;5.13;3.63;;;;;;;3.92;100.00;101027.31;5052528;28;20481;-36
2022/02/04 16:58:46;;;;;;;7.53;5.63;;;;;;;3.84;100.00;101021.03;5052751;28;20112;-36
2022/02/04 17:01:15;;;;;;;3.60;2.53;;;;;;;3.92;99.97;101044.22;5053041;28;20053;-36
2022/02/04 17:03:41;;;;;;;5.00;3.47;;;;;;;3.93;100.00;101048.53;5052356;28;20031;-35
2022/02/04 17:06:09;;;;;;;3.60;1.17;;;;;;;3.83;100.00;101040.78;5035161;28;20131;-35
2022/02/04 17:08:45;;;;;;;3.83;2.03;;;;;;;3.93;100.00;101072.63;5053083;28;20029;-35
2022/02/04 17:11:12;;;;;;;3.67;1.90;;;;;;;3.94;100.00;101084.97;5052617;28;20025;-35
2022/02/04 17:13:38;;;;;;;3.53;1.10;;;;;;;3.95;100.00;101096.50;5052349;28;20029;-35
2022/02/04 17:16:04;;;;;;;1.92;1.10;;;;;;;3.91;100.00;101088.03;5052299;28;20032;-35
2022/02/04 17:18:30;;;;;;;3.80;1.10;;;;;;;3.94;99.76;101102.88;5052860;28;20025;-35
2022/02/04 17:20:55;;;;;;;2.35;0.80;;;;;;;3.93;99.29;101115.44;5053397;28;20032;-35
2022/02/04 17:26:05;;;;;;;1.98;0.85;;;;;;;3.81;98.19;101122.25;5052475;28;20040;-36
2022/02/04 17:28:30;;;;;;;1.50;0.80;;;;;;;3.67;97.90;101118.50;5052566;28;20033;-35
2022/02/04 17:30:57;;;;;;;4.07;2.28;;;;;;;3.60;97.93;101120.22;5053227;28;20035;-36
2022/02/04 17:33:24;;;;;;;2.40;1.25;;;;;;;3.62;97.61;101142.28;5055626;28;20188;-35
2022/02/04 17:35:50;;;;;;;3.70;1.40;;;;;;;3.47;98.24;101136.88;5054422;28;20048;-35
2022/02/04 17:38:16;;;;;;;3.10;1.40;;;;;;;3.55;98.59;101154.69;5056084;28;20017;-35
2022/02/04 17:40:42;;;;;;;3.22;1.27;;;;;;;3.52;98.86;101155.88;5055959;28;20036;-35
2022/02/04 17:43:07;;;;;;;3.97;1.57;;;;;;;3.52;98.95;101149.69;5056037;28;20029;-35
2022/02/04 17:45:33;;;;;;;5.10;1.90;;;;;;;3.44;98.83;101139.88;5056414;28;20778;-35
2022/02/04 17:48:08;;;;;;;5.28;1.60;;;;;;;3.51;98.96;101162.22;5055806;28;20413;-35
2022/02/04 17:51:06;;;;;;;3.25;1.20;;;;;;;3.50;99.41;101170.41;5055599;28;20033;-35
2022/02/04 17:53:33;;;;;;;7.38;1.77;;;;;;;3.49;98.71;101174.09;5055606;28;20116;-35
2022/02/04 17:56:03;;;;;;;9.55;1.77;;;;;;;3.40;98.88;101176.00;5055314;28;20063;-35
2022/02/04 17:58:43;;;;;;;3.47;1.52;;;;;;;3.41;98.61;101180.31;5055379;28;20469;-35